createdAt,value
2018-02-05T00:02:18.542Z,-3.20
2018-02-05T00:04:44.732Z,-3.30
2018-02-05T00:07:10.943Z,-3.20
2018-02-05T00:09:37.151Z,-3.20
2018-02-05T00:12:04.083Z,-3.10
2018-02-05T00:14:31.048Z,-3.10
2018-02-05T00:16:57.979Z,-3.10
2018-02-05T00:19:24.936Z,-3.10
2018-02-05T00:21:51.894Z,-3.10
2018-02-05T00:24:18.084Z,-3.20
2018-02-05T00:26:44.300Z,-3.10
2018-02-05T00:29:10.491Z,-3.10
2018-02-05T00:31:37.088Z,-3.00
2018-02-05T00:34:03.308Z,-2.90
2018-02-05T00:36:29.527Z,-2.90
2018-02-05T00:38:55.711Z,-2.80
2018-02-05T00:41:21.933Z,-2.70
2018-02-05T00:43:48.204Z,-2.70
2018-02-05T00:46:14.426Z,-2.60
2018-02-05T00:48:40.611Z,-2.60
2018-02-05T00:51:07.568Z,-2.50
2018-02-05T00:53:33.752Z,-2.60
2018-02-05T00:55:59.959Z,-2.50
2018-02-05T00:58:26.148Z,-2.50
2018-02-05T01:00:52.436Z,-2.50
2018-02-05T01:03:18.624Z,-2.40
2018-02-05T01:05:44.859Z,-2.40
2018-02-05T01:08:11.039Z,-2.40
2018-02-05T01:10:37.280Z,-2.40
2018-02-05T01:13:04.199Z,-2.40
2018-02-05T01:15:30.408Z,-2.40
2018-02-05T01:17:56.606Z,-2.40
2018-02-05T01:20:22.907Z,-2.30
2018-02-05T01:22:49.852Z,-2.20
2018-02-05T01:25:16.963Z,-2.20
2018-02-05T01:27:43.147Z,-2.20
2018-02-05T01:30:10.076Z,-2.10
2018-02-05T01:32:37.028Z,-2.10
2018-02-05T01:35:03.964Z,-2.10
2018-02-05T01:37:30.919Z,-2.10
2018-02-05T01:39:57.847Z,-2.10
2018-02-05T01:42:24.055Z,-2.10
2018-02-05T01:44:50.240Z,-2.00
2018-02-05T01:47:16.456Z,-2.00
2018-02-05T01:49:43.392Z,-1.80
2018-02-05T01:52:10.344Z,-1.80
2018-02-05T01:54:37.264Z,-1.80
2018-02-05T01:57:03.540Z,-1.80
2018-02-05T01:59:29.728Z,-1.80
2018-02-05T02:01:55.949Z,-1.70
2018-02-05T02:04:22.140Z,-1.70
2018-02-05T02:06:48.351Z,-1.70
2018-02-05T02:09:14.539Z,-1.70
2018-02-05T02:11:40.756Z,-1.70
2018-02-05T02:14:06.948Z,-1.60
2018-02-05T02:16:33.187Z,-1.60
2018-02-05T02:18:59.375Z,-1.60
2018-02-05T02:21:26.612Z,-1.50
2018-02-05T02:23:54.149Z,-1.50
2018-02-05T02:26:20.569Z,-1.50
2018-02-05T02:28:47.326Z,-1.40
2018-02-05T02:31:14.300Z,-1.40
2018-02-05T02:33:40.538Z,-1.40
2018-02-05T02:36:07.515Z,-1.40
2018-02-05T02:38:33.712Z,-1.40
2018-02-05T02:41:00.708Z,-1.40
2018-02-05T02:43:26.891Z,-1.40
2018-02-05T02:45:53.824Z,-1.40
2018-02-05T02:48:20.792Z,-1.30
2018-02-05T02:50:47.748Z,-1.30
2018-02-05T02:53:13.968Z,-1.30
2018-02-05T02:55:40.899Z,-1.30
2018-02-05T02:58:07.856Z,-1.30
2018-02-05T03:00:34.788Z,-1.40
2018-02-05T03:03:01.743Z,-1.50
2018-02-05T03:05:28.739Z,-1.40
2018-02-05T03:07:54.972Z,-1.50
2018-02-05T03:10:21.168Z,-1.40
2018-02-05T03:12:47.413Z,-1.30
2018-02-05T03:15:13.608Z,-1.30
2018-02-05T03:17:40.568Z,-1.40
2018-02-05T03:20:06.824Z,-1.40
2018-02-05T03:22:33.040Z,-1.30
2018-02-05T03:24:59.256Z,-1.20
2018-02-05T03:27:25.532Z,-1.20
2018-02-05T03:29:51.719Z,-1.20
2018-02-05T03:32:17.971Z,-1.10
2018-02-05T03:34:44.164Z,-1.10
2018-02-05T03:37:10.384Z,-1.10
2018-02-05T03:39:37.307Z,-1.10
2018-02-05T03:42:04.997Z,-1.10
2018-02-05T03:44:31.919Z,-1.00
2018-02-05T03:46:58.164Z,-1.10
2018-02-05T03:49:25.095Z,-1.10
2018-02-05T03:51:51.279Z,-1.10
2018-02-05T03:54:17.504Z,-1.10
2018-02-05T03:56:43.695Z,-1.10
2018-02-05T03:59:10.643Z,-1.00
2018-02-05T04:01:37.576Z,-0.90
2018-02-05T04:04:03.844Z,-1.00
2018-02-05T04:06:30.047Z,-0.90
2018-02-05T04:08:57.255Z,-1.00
2018-02-05T04:11:23.520Z,-1.00
2018-02-05T04:13:49.736Z,-1.00
2018-02-05T04:16:15.928Z,-1.00
2018-02-05T04:18:42.212Z,-1.00
2018-02-05T04:21:09.176Z,-1.00
2018-02-05T04:23:35.391Z,-1.00
2018-02-05T04:26:02.352Z,-1.00
2018-02-05T04:28:28.568Z,-1.10
2018-02-05T04:30:55.496Z,-1.10
2018-02-05T04:33:21.712Z,-1.10
2018-02-05T04:35:47.931Z,-1.10
2018-02-05T04:38:14.268Z,-1.10
2018-02-05T04:40:40.460Z,-1.10
2018-02-05T04:43:06.647Z,-1.10
2018-02-05T04:45:32.888Z,-1.10
2018-02-05T04:47:59.819Z,-1.20
2018-02-05T04:50:26.041Z,-1.20
2018-02-05T04:52:52.236Z,-1.20
2018-02-05T04:55:18.459Z,-1.20
2018-02-05T04:57:44.643Z,-1.20
2018-02-05T05:00:11.600Z,-1.20
2018-02-05T05:02:38.519Z,-1.20
2018-02-05T05:05:04.727Z,-1.30
2018-02-05T05:07:30.904Z,-1.30
2018-02-05T05:09:57.868Z,-1.30
2018-02-05T05:12:24.065Z,-1.30
2018-02-05T05:14:51.020Z,-1.30
2018-02-05T05:17:17.947Z,-1.30
2018-02-05T05:19:44.197Z,-1.40
2018-02-05T05:22:11.131Z,-1.40
2018-02-05T05:24:38.091Z,-1.40
2018-02-05T05:27:05.020Z,-1.40
2018-02-05T05:29:31.975Z,-1.40
2018-02-05T05:31:58.912Z,-1.40
2018-02-05T05:34:25.124Z,-1.40
2018-02-05T05:36:51.333Z,-1.40
2018-02-05T05:39:17.583Z,-1.40
2018-02-05T05:41:44.539Z,-1.40
2018-02-05T05:44:11.475Z,-1.40
2018-02-05T05:46:37.694Z,-1.40
2018-02-05T05:49:03.888Z,-1.40
2018-02-05T05:51:30.099Z,-1.40
2018-02-05T05:53:56.292Z,-1.40
2018-02-05T05:56:22.511Z,-1.50
2018-02-05T05:58:48.708Z,-1.50
2018-02-05T06:01:14.939Z,-1.40
2018-02-05T06:03:41.160Z,-1.50
2018-02-05T06:06:07.436Z,-1.40
2018-02-05T06:08:33.632Z,-1.50
2018-02-05T06:10:59.843Z,-1.40
2018-02-05T06:13:26.023Z,-1.60
2018-02-05T06:15:52.245Z,-1.60
2018-02-05T06:18:18.427Z,-1.60
2018-02-05T06:20:44.636Z,-1.60
2018-02-05T06:23:11.604Z,-1.60
2018-02-05T06:25:37.788Z,-1.60
2018-02-05T06:28:04.006Z,-1.60
2018-02-05T06:30:30.192Z,-1.60
2018-02-05T06:32:56.403Z,-1.70
2018-02-05T06:35:22.595Z,-1.70
2018-02-05T06:37:48.804Z,-1.70
2018-02-05T06:40:14.992Z,-1.60
2018-02-05T06:42:41.209Z,-1.60
2018-02-05T06:45:08.139Z,-1.70
2018-02-05T06:47:34.356Z,-1.70
2018-02-05T06:50:00.548Z,-1.70
2018-02-05T06:52:39.219Z,-1.80
2018-02-05T06:55:16.635Z,-1.70
2018-02-05T06:57:42.856Z,-1.70
2018-02-05T07:00:09.827Z,-1.80
2018-02-05T07:02:36.053Z,-1.80
2018-02-05T07:05:02.239Z,-1.70
2018-02-05T07:07:28.428Z,-1.80
2018-02-05T07:09:54.707Z,-1.80
2018-02-05T07:12:21.639Z,-1.80
2018-02-05T07:14:49.336Z,-1.70
2018-02-05T07:17:15.545Z,-1.70
2018-02-05T07:19:42.491Z,-1.70
2018-02-05T07:22:09.439Z,-1.80
2018-02-05T07:24:36.391Z,-1.80
2018-02-05T07:27:03.340Z,-1.80
2018-02-05T07:29:30.300Z,-1.70
2018-02-05T07:31:56.483Z,-1.70
2018-02-05T07:34:22.698Z,-1.60
2018-02-05T07:36:48.875Z,-1.60
2018-02-05T07:39:15.097Z,-1.50
2018-02-05T07:41:41.308Z,-1.50
2018-02-05T07:44:07.532Z,-1.50
2018-02-05T07:46:34.469Z,-1.60
2018-02-05T07:49:00.680Z,-1.60
2018-02-05T07:51:26.863Z,-1.60
2018-02-05T07:53:53.821Z,-1.50
2018-02-05T07:56:20.017Z,-1.50
2018-02-05T07:58:46.992Z,-1.40
2018-02-05T08:01:13.180Z,-1.40
2018-02-05T08:03:39.424Z,-1.40
2018-02-05T08:06:06.361Z,-1.40
2018-02-05T08:08:32.552Z,-1.40
2018-02-05T08:10:58.775Z,-1.40
2018-02-05T08:13:24.965Z,-1.40
2018-02-05T08:15:51.919Z,-1.30
2018-02-05T08:18:18.132Z,-1.30
2018-02-05T08:20:45.124Z,-0.50
2018-02-05T08:23:11.551Z,-0.50
2018-02-05T08:25:37.768Z,0.10
2018-02-05T08:28:03.947Z,0.70
2018-02-05T08:30:30.232Z,0.60
2018-02-05T08:32:56.407Z,0.70
2018-02-05T08:35:22.756Z,0.40
2018-02-05T08:37:48.935Z,0.30
2018-02-05T08:40:15.140Z,0.20
2018-02-05T08:42:41.355Z,0.00
2018-02-05T08:45:08.284Z,-0.30
2018-02-05T08:47:34.501Z,-0.30
2018-02-05T08:50:00.688Z,-0.40
2018-02-05T08:52:26.902Z,-0.30
2018-02-05T08:54:53.164Z,-0.50
2018-02-05T08:57:19.376Z,-0.40
2018-02-05T08:59:45.568Z,-0.20
2018-02-05T09:02:12.528Z,-0.20
2018-02-05T09:04:38.707Z,-0.20
2018-02-05T09:07:04.924Z,-0.20
2018-02-05T09:09:31.112Z,-0.20
2018-02-05T09:11:57.332Z,-0.20
2018-02-05T09:14:24.259Z,-0.10
2018-02-05T09:16:50.476Z,-0.20
2018-02-05T09:19:16.710Z,0.20
2018-02-05T09:21:42.924Z,0.40
2018-02-05T09:24:09.108Z,0.40
2018-02-05T09:26:35.320Z,0.50
2018-02-05T09:29:02.251Z,0.30
2018-02-05T09:31:28.472Z,0.30
2018-02-05T09:33:54.666Z,0.30
2018-02-05T09:36:20.904Z,0.40
2018-02-05T09:38:47.088Z,0.40
2018-02-05T09:41:14.020Z,0.40
2018-02-05T09:43:40.976Z,0.40
2018-02-05T09:46:07.936Z,0.30
2018-02-05T09:48:34.119Z,0.30
2018-02-05T09:51:00.332Z,0.30
2018-02-05T09:53:26.515Z,0.10
2018-02-05T09:55:52.733Z,-0.10
2018-02-05T09:58:19.660Z,0.10
2018-02-05T10:00:45.871Z,0.00
2018-02-05T10:03:12.075Z,0.00
2018-02-05T10:05:38.292Z,0.20
2018-02-05T10:08:04.484Z,0.00
2018-02-05T10:10:31.676Z,0.00
2018-02-05T10:12:57.883Z,0.00
2018-02-05T10:15:24.820Z,0.50
2018-02-05T10:17:51.784Z,0.60
2018-02-05T10:20:18.004Z,0.60
2018-02-05T10:22:44.224Z,0.70
2018-02-05T10:25:11.197Z,0.10
2018-02-05T10:27:38.145Z,0.20
2018-02-05T10:30:04.332Z,0.20
2018-02-05T10:32:31.360Z,0.00
2018-02-05T10:34:57.563Z,0.00
2018-02-05T10:37:23.858Z,-0.20
2018-02-05T10:39:50.047Z,-0.30
2018-02-05T10:42:16.476Z,-0.40
2018-02-05T10:44:42.764Z,-0.30
2018-02-05T10:47:08.944Z,-0.30
2018-02-05T10:49:35.158Z,-0.30
2018-02-05T10:52:01.356Z,0.00
2018-02-05T10:54:27.703Z,0.10
2018-02-05T10:56:53.888Z,0.20
2018-02-05T10:59:20.873Z,0.40
2018-02-05T11:01:47.076Z,0.40
2018-02-05T11:04:13.288Z,0.40
2018-02-05T11:06:40.207Z,0.30
2018-02-05T11:09:06.427Z,0.30
2018-02-05T11:11:32.613Z,0.50
2018-02-05T11:13:58.856Z,1.10
2018-02-05T11:16:25.036Z,1.40
2018-02-05T11:18:51.229Z,2.20
2018-02-05T11:21:17.465Z,2.90
2018-02-05T11:23:44.432Z,2.20
2018-02-05T11:26:10.647Z,2.20
2018-02-05T11:28:36.835Z,1.60
2018-02-05T11:31:03.075Z,1.20
2018-02-05T11:33:29.261Z,0.80
2018-02-05T11:35:55.471Z,0.30
2018-02-05T11:38:28.648Z,0.00
2018-02-05T11:40:54.864Z,0.00
2018-02-05T11:43:21.057Z,-0.20
2018-02-05T11:45:47.283Z,-0.30
2018-02-05T11:48:14.220Z,-0.70
2018-02-05T11:50:41.183Z,-0.70
2018-02-05T11:53:07.368Z,-0.70
2018-02-05T11:55:33.580Z,-0.50
2018-02-05T11:57:59.772Z,-0.50
2018-02-05T12:00:26.013Z,-0.40
2018-02-05T12:02:52.195Z,-0.60
2018-02-05T12:05:18.480Z,-0.60
2018-02-05T12:07:44.673Z,-0.60
2018-02-05T12:10:11.636Z,-0.20
2018-02-05T12:12:37.822Z,-0.20
2018-02-05T12:15:04.048Z,0.00
2018-02-05T12:17:30.984Z,0.00
2018-02-05T12:19:57.238Z,0.00
2018-02-05T12:22:24.172Z,-0.40
2018-02-05T12:24:50.403Z,-0.40
2018-02-05T12:27:16.588Z,-0.20
2018-02-05T12:29:42.780Z,-0.20
2018-02-05T12:32:09.743Z,-0.10
2018-02-05T12:34:36.016Z,-0.20
2018-02-05T12:37:02.237Z,-0.10
2018-02-05T12:39:28.432Z,0.00
2018-02-05T12:41:54.643Z,-0.10
2018-02-05T12:44:28.514Z,0.00
2018-02-05T12:46:54.744Z,-0.10
2018-02-05T12:49:20.935Z,-0.10
2018-02-05T12:51:47.152Z,-0.10
2018-02-05T12:54:13.389Z,-0.10
2018-02-05T12:56:39.628Z,0.00
2018-02-05T12:59:05.836Z,0.10
2018-02-05T13:01:46.995Z,0.00
2018-02-05T13:07:13.699Z,-0.10
2018-02-05T13:09:39.896Z,-0.10
2018-02-05T13:12:06.859Z,-0.10
2018-02-05T13:14:33.048Z,-0.10
2018-02-05T13:17:00.763Z,-0.30
2018-02-05T13:19:27.012Z,-0.20
2018-02-05T13:21:53.319Z,-0.40
2018-02-05T13:24:19.508Z,-0.50
2018-02-05T13:26:45.696Z,-0.50
2018-02-05T13:29:11.913Z,-0.50
2018-02-05T13:31:38.128Z,-0.50
2018-02-05T13:34:04.356Z,-0.60
2018-02-05T13:36:30.625Z,-0.60
2018-02-05T13:38:56.839Z,-0.70
2018-02-05T13:41:23.027Z,-0.80
2018-02-05T13:43:49.255Z,-0.60
2018-02-05T13:46:16.192Z,-0.60
2018-02-05T13:48:43.148Z,-0.60
2018-02-05T13:51:09.395Z,-0.60
2018-02-05T13:53:36.340Z,-0.60
2018-02-05T13:56:02.791Z,-0.60
2018-02-05T13:58:29.000Z,-0.60
2018-02-05T14:00:55.451Z,-0.60
2018-02-05T14:03:21.808Z,-0.70
2018-02-05T14:05:47.999Z,-0.80
2018-02-05T14:08:14.188Z,-0.80
2018-02-05T14:10:40.404Z,-0.90
2018-02-05T14:13:06.615Z,-0.90
2018-02-05T14:15:32.852Z,-0.90
2018-02-05T14:17:59.084Z,-0.80
2018-02-05T14:20:25.316Z,-0.80
2018-02-05T14:22:51.508Z,-0.80
2018-02-05T14:25:17.728Z,-0.90
2018-02-05T14:27:43.924Z,-0.90
2018-02-05T14:30:10.555Z,-0.90
2018-02-05T14:32:36.739Z,-1.00
2018-02-05T14:35:02.956Z,-1.00
2018-02-05T14:37:29.148Z,-1.00
2018-02-05T14:39:56.108Z,-1.10
2018-02-05T14:42:23.047Z,-1.10
2018-02-05T14:44:50.030Z,-1.00
2018-02-05T14:47:16.220Z,-1.00
2018-02-05T14:49:43.180Z,-1.00
2018-02-05T14:52:10.108Z,-1.00
2018-02-05T14:54:36.323Z,-1.00
2018-02-05T14:57:02.536Z,-1.10
2018-02-05T14:59:28.766Z,-1.10
2018-02-05T15:01:54.952Z,-1.10
2018-02-05T15:04:21.257Z,-1.20
2018-02-05T15:06:47.476Z,-1.10
2018-02-05T15:09:13.687Z,-1.10
2018-02-05T15:11:39.872Z,-1.20
2018-02-05T15:14:06.095Z,-1.20
2018-02-05T15:16:32.284Z,-1.20
2018-02-05T15:18:58.471Z,-1.10
2018-02-05T15:21:24.715Z,-1.00
2018-02-05T15:23:50.903Z,-1.00
2018-02-05T15:26:17.859Z,-1.10
2018-02-05T15:28:44.036Z,-1.20
2018-02-05T15:31:10.252Z,-1.10
2018-02-05T15:33:36.432Z,-1.10
2018-02-05T15:36:03.392Z,-1.10
2018-02-05T15:38:29.589Z,-1.10
2018-02-05T15:40:56.609Z,-1.10
2018-02-05T15:43:22.800Z,-1.10
2018-02-05T15:45:49.043Z,-1.10
2018-02-05T15:48:15.227Z,-1.10
2018-02-05T15:50:42.180Z,-1.20
2018-02-05T15:53:09.111Z,-1.30
2018-02-05T15:55:36.064Z,-1.40
2018-02-05T15:58:03.000Z,-1.40
2018-02-05T16:00:29.284Z,-1.40
2018-02-05T16:02:55.464Z,-1.40
2018-02-05T16:05:22.444Z,-1.40
2018-02-05T16:07:48.622Z,-1.40
2018-02-05T16:10:14.856Z,-1.40
2018-02-05T16:12:41.119Z,-1.30
2018-02-05T16:15:07.335Z,-1.30
2018-02-05T16:17:34.261Z,-1.50
2018-02-05T16:20:01.248Z,-1.50
2018-02-05T16:22:27.436Z,-1.50
2018-02-05T16:24:53.658Z,-1.50
2018-02-05T16:27:19.855Z,-1.40
2018-02-05T16:29:46.059Z,-1.50
2018-02-05T16:32:12.298Z,-1.50
2018-02-05T16:34:38.479Z,-1.60
2018-02-05T16:37:04.692Z,-1.50
2018-02-05T16:39:30.892Z,-1.50
2018-02-05T16:41:57.172Z,-1.50
2018-02-05T16:44:23.355Z,-1.50
2018-02-05T16:46:49.573Z,-1.50
2018-02-05T16:49:15.768Z,-1.50
2018-02-05T16:51:42.723Z,-1.50
2018-02-05T16:54:09.652Z,-1.50
2018-02-05T16:56:35.871Z,-1.50
2018-02-05T16:59:02.089Z,-1.50
2018-02-05T17:01:28.559Z,-1.60
2018-02-05T17:03:55.487Z,-1.70
2018-02-05T17:06:22.460Z,-1.70
2018-02-05T17:08:48.707Z,-1.70
2018-02-05T17:11:14.929Z,-1.80
2018-02-05T17:13:41.120Z,-1.80
2018-02-05T17:16:08.088Z,-1.90
2018-02-05T17:18:35.016Z,-1.90
2018-02-05T17:21:01.263Z,-2.00
2018-02-05T17:23:28.232Z,-2.00
2018-02-05T17:25:54.460Z,-2.00
2018-02-05T17:28:20.652Z,-2.00
2018-02-05T17:30:47.612Z,-2.10
2018-02-05T17:33:14.535Z,-2.10
2018-02-05T17:35:40.928Z,-2.10
2018-02-05T17:38:07.111Z,-2.10
2018-02-05T17:40:34.076Z,-2.10
2018-02-05T17:43:00.268Z,-2.10
2018-02-05T17:45:26.493Z,-2.10
2018-02-05T17:47:54.175Z,-2.00
2018-02-05T17:50:21.144Z,-2.00
2018-02-05T17:52:47.356Z,-2.00
2018-02-05T17:55:14.324Z,-2.10
2018-02-05T17:57:40.512Z,-2.10
2018-02-05T18:00:06.756Z,-2.10
2018-02-05T18:02:33.679Z,-2.20
2018-02-05T18:04:59.892Z,-2.20
2018-02-05T18:07:26.075Z,-2.30
2018-02-05T18:09:52.255Z,-2.30
2018-02-05T18:12:18.472Z,-2.40
2018-02-05T18:14:44.655Z,-2.50
2018-02-05T18:17:11.624Z,-2.60
2018-02-05T18:19:37.806Z,-2.60
2018-02-05T18:22:04.047Z,-2.70
2018-02-05T18:24:30.976Z,-2.70
2018-02-05T18:26:57.188Z,-2.80
2018-02-05T18:29:23.376Z,-2.80
2018-02-05T18:31:49.591Z,-2.80
2018-02-05T18:34:16.525Z,-2.90
2018-02-05T18:36:42.924Z,-2.90
2018-02-05T18:39:09.119Z,-3.00
2018-02-05T18:41:35.307Z,-3.00
2018-02-05T18:44:01.524Z,-3.10
2018-02-05T18:46:28.044Z,-3.20
2018-02-05T18:48:54.224Z,-3.30
2018-02-05T18:51:27.379Z,-3.40
2018-02-05T18:53:54.312Z,-3.50
2018-02-05T18:56:32.785Z,-3.50
2018-02-05T18:58:58.981Z,-3.50
2018-02-05T19:01:25.907Z,-3.70
2018-02-05T19:03:52.129Z,-3.70
2018-02-05T19:06:18.311Z,-3.80
2018-02-05T19:08:44.527Z,-3.80
2018-02-05T19:11:11.459Z,-3.90
2018-02-05T19:13:37.672Z,-4.00
2018-02-05T19:16:03.859Z,-4.00
2018-02-05T19:18:30.101Z,-4.00
2018-02-05T19:20:56.320Z,-4.10
2018-02-05T19:23:22.551Z,-4.10
2018-02-05T19:25:48.748Z,-4.10
2018-02-05T19:28:15.732Z,-4.10
2018-02-05T19:30:41.919Z,-4.10
2018-02-05T19:33:08.892Z,-4.10
2018-02-05T19:35:35.083Z,-4.10
2018-02-05T19:38:02.204Z,-4.10
2018-02-05T19:40:28.398Z,-4.10
2018-02-05T19:42:54.762Z,-4.10
2018-02-05T19:45:21.271Z,-4.10
2018-02-05T19:47:47.487Z,-4.10
2018-02-05T19:50:13.675Z,-4.10
2018-02-05T19:52:39.855Z,-4.10
2018-02-05T19:55:06.059Z,-4.10
2018-02-05T19:57:33.340Z,-4.20
2018-02-05T19:59:59.599Z,-4.20
2018-02-05T20:02:25.839Z,-4.20
2018-02-05T20:04:52.056Z,-4.20
2018-02-05T20:07:18.235Z,-4.30
2018-02-05T20:09:44.523Z,-4.30
2018-02-05T20:12:10.715Z,-4.40
2018-02-05T20:14:36.932Z,-4.40
2018-02-05T20:17:03.124Z,-4.50
2018-02-05T20:19:29.382Z,-4.60
2018-02-05T20:21:55.600Z,-4.70
2018-02-05T20:24:22.560Z,-4.80
2018-02-05T20:26:48.747Z,-4.80
2018-02-05T20:29:14.964Z,-4.80
2018-02-05T20:31:41.202Z,-4.80
2018-02-05T20:34:07.420Z,-4.80
2018-02-05T20:36:33.651Z,-4.90
2018-02-05T20:38:59.863Z,-4.90
2018-02-05T20:41:26.043Z,-4.90
2018-02-05T20:43:53.043Z,-4.90
2018-02-05T20:46:19.270Z,-5.00
2018-02-05T20:48:45.515Z,-4.90
2018-02-05T20:51:11.727Z,-5.00
2018-02-05T20:53:37.953Z,-5.00
2018-02-05T20:56:04.167Z,-5.00
2018-02-05T20:58:30.360Z,-5.00
2018-02-05T21:00:57.324Z,-5.00
2018-02-05T21:03:23.516Z,-5.10
2018-02-05T21:05:49.731Z,-5.10
2018-02-05T21:08:15.916Z,-5.10
2018-02-05T21:10:42.132Z,-5.20
2018-02-05T21:13:09.057Z,-5.30
2018-02-05T21:15:36.054Z,-5.30
2018-02-05T21:18:02.245Z,-5.30
2018-02-05T21:20:29.198Z,-5.40
2018-02-05T21:22:56.193Z,-5.40
2018-02-05T21:25:22.412Z,-5.40
2018-02-05T21:27:48.608Z,-5.40
2018-02-05T21:30:14.827Z,-5.40
2018-02-05T21:32:41.760Z,-5.40
2018-02-05T21:35:07.981Z,-5.40
2018-02-05T21:37:34.396Z,-5.40
2018-02-05T21:40:00.617Z,-5.30
2018-02-05T21:42:26.845Z,-5.30
2018-02-05T21:44:53.360Z,-5.30
2018-02-05T21:47:19.548Z,-5.30
2018-02-05T21:49:46.505Z,-5.30
2018-02-05T21:52:13.514Z,-5.40
2018-02-05T21:54:40.051Z,-5.40
2018-02-05T21:57:06.278Z,-5.50
2018-02-05T21:59:32.501Z,-5.50
2018-02-05T22:01:58.720Z,-5.50
2018-02-05T22:04:25.034Z,-5.50
2018-02-05T22:06:51.249Z,-5.50
2018-02-05T22:09:17.442Z,-5.50
2018-02-05T22:11:43.661Z,-5.60
2018-02-05T22:14:09.867Z,-5.60
2018-02-05T22:16:36.075Z,-5.60
2018-02-05T22:19:02.261Z,-5.60
2018-02-05T22:21:28.528Z,-5.60
2018-02-05T22:23:54.707Z,-5.70
2018-02-05T22:26:20.916Z,-5.70
2018-02-05T22:28:47.105Z,-5.70
2018-02-05T22:31:13.327Z,-5.70
2018-02-05T22:33:40.260Z,-5.80
2018-02-05T22:36:07.240Z,-5.80
2018-02-05T22:38:33.432Z,-5.80
2018-02-05T22:41:00.387Z,-5.70
2018-02-05T22:43:27.320Z,-5.70
2018-02-05T22:45:54.403Z,-5.70
2018-02-05T22:48:20.596Z,-5.70
2018-02-05T22:50:46.831Z,-5.70
2018-02-05T22:53:13.767Z,-5.80
2018-02-05T22:55:40.012Z,-5.80
2018-02-05T22:58:06.945Z,-5.90
2018-02-05T23:00:33.886Z,-5.90
2018-02-05T23:03:00.094Z,-5.90
2018-02-05T23:05:26.294Z,-5.90
2018-02-05T23:07:52.528Z,-5.90
2018-02-05T23:10:18.715Z,-6.00
2018-02-05T23:12:45.663Z,-6.00
2018-02-05T23:15:12.903Z,-6.10
2018-02-05T23:17:39.387Z,-6.10
2018-02-05T23:20:05.604Z,-6.00
2018-02-05T23:22:31.824Z,-6.00
2018-02-05T23:24:58.013Z,-6.10
2018-02-05T23:27:24.252Z,-6.20
2018-02-05T23:29:50.440Z,-6.20
2018-02-05T23:32:16.968Z,-6.20
2018-02-05T23:34:43.155Z,-6.20
2018-02-05T23:37:10.115Z,-6.30
2018-02-05T23:39:36.313Z,-6.40
2018-02-05T23:42:02.653Z,-6.30
2018-02-05T23:44:28.845Z,-6.30
2018-02-05T23:46:55.036Z,-6.40
2018-02-05T23:49:21.247Z,-6.30
2018-02-05T23:51:48.185Z,-6.30
2018-02-05T23:54:15.144Z,-6.40
2018-02-05T23:56:42.067Z,-6.40
2018-02-05T23:59:08.280Z,-6.40
